createdAt,value
2023-04-24T00:01:06.792Z,13.80
2023-04-24T00:03:35.120Z,13.23
2023-04-24T00:06:01.908Z,13.38
2023-04-24T00:08:28.435Z,14.38
2023-04-24T00:10:54.911Z,13.30
2023-04-24T00:13:21.438Z,13.15
2023-04-24T00:15:47.892Z,13.07
2023-04-24T00:18:14.397Z,12.95
2023-04-24T00:20:40.891Z,13.23
2023-04-24T00:23:07.346Z,12.30
2023-04-24T00:25:33.995Z,12.50
2023-04-24T00:28:00.483Z,12.40
2023-04-24T00:30:26.985Z,13.02
2023-04-24T00:32:53.862Z,12.15
2023-04-24T00:35:20.387Z,12.40
2023-04-24T00:37:46.850Z,14.38
2023-04-24T00:40:13.531Z,12.52
2023-04-24T00:42:40.355Z,12.00
2023-04-24T00:45:07.311Z,12.95
2023-04-24T00:47:33.773Z,12.02
2023-04-24T00:50:00.652Z,10.80
2023-04-24T00:52:27.528Z,11.77
2023-04-24T00:54:54.407Z,11.02
2023-04-24T00:57:20.894Z,10.65
2023-04-24T00:59:47.322Z,11.55
2023-04-24T01:02:14.098Z,11.88
2023-04-24T01:04:40.792Z,10.75
2023-04-24T01:07:07.853Z,10.70
2023-04-24T01:09:35.081Z,10.90
2023-04-24T01:12:02.156Z,11.20
2023-04-24T01:14:28.729Z,11.10
2023-04-24T01:16:55.290Z,10.55
2023-04-24T01:19:22.445Z,10.48
2023-04-24T01:21:49.533Z,9.88
2023-04-24T01:24:16.345Z,9.73
2023-04-24T01:26:42.793Z,10.77
2023-04-24T01:29:09.715Z,10.90
2023-04-24T01:31:36.308Z,10.38
2023-04-24T01:34:02.862Z,10.35
2023-04-24T01:36:29.220Z,9.55
2023-04-24T01:38:55.995Z,10.32
2023-04-24T01:41:22.809Z,10.52
2023-04-24T01:43:49.499Z,10.07
2023-04-24T01:46:16.150Z,9.82
2023-04-24T01:48:42.761Z,10.10
2023-04-24T01:51:09.244Z,9.98
2023-04-24T01:53:35.703Z,10.23
2023-04-24T01:56:02.432Z,9.73
2023-04-24T01:58:28.957Z,10.23
2023-04-24T02:00:55.582Z,9.75
2023-04-24T02:03:22.379Z,9.38
2023-04-24T02:05:48.970Z,9.95
2023-04-24T02:08:15.665Z,11.98
2023-04-24T02:10:42.412Z,9.38
2023-04-24T02:13:08.825Z,9.00
2023-04-24T02:15:35.838Z,9.88
2023-04-24T02:18:02.677Z,10.77
2023-04-24T02:20:29.112Z,9.98
2023-04-24T02:22:55.798Z,9.25
2023-04-24T02:25:22.231Z,9.48
2023-04-24T02:27:49.626Z,9.20
2023-04-24T02:30:16.168Z,12.57
2023-04-24T02:32:42.745Z,9.93
2023-04-24T02:35:09.985Z,9.43
2023-04-24T02:37:36.606Z,9.35
2023-04-24T02:40:03.457Z,9.32
2023-04-24T02:42:29.988Z,9.25
2023-04-24T02:44:56.837Z,9.30
2023-04-24T02:47:23.806Z,8.70
2023-04-24T02:49:50.745Z,9.20
2023-04-24T02:52:17.275Z,9.15
2023-04-24T02:54:44.028Z,8.88
2023-04-24T02:57:10.955Z,9.10
2023-04-24T02:59:38.099Z,10.07
2023-04-24T03:02:04.776Z,8.68
2023-04-24T03:04:31.720Z,10.60
2023-04-24T03:06:58.555Z,9.30
2023-04-24T03:09:25.420Z,9.25
2023-04-24T03:11:52.255Z,9.20
2023-04-24T03:14:18.820Z,9.30
2023-04-24T03:16:45.857Z,8.95
2023-04-24T03:19:12.372Z,8.95
2023-04-24T03:21:39.409Z,8.00
2023-04-24T03:24:05.909Z,8.57
2023-04-24T03:26:32.890Z,10.23
2023-04-24T03:28:59.354Z,9.35
2023-04-24T03:31:26.402Z,8.80
2023-04-24T03:33:53.434Z,8.48
2023-04-24T03:36:19.989Z,8.00
2023-04-24T03:38:46.841Z,8.77
2023-04-24T03:41:13.702Z,9.40
2023-04-24T03:43:40.376Z,8.55
2023-04-24T03:46:07.410Z,8.95
2023-04-24T03:48:34.267Z,9.10
2023-04-24T03:51:01.313Z,8.57
2023-04-24T03:53:28.360Z,8.68
2023-04-24T03:55:54.881Z,8.63
2023-04-24T03:58:22.219Z,8.85
2023-04-24T04:00:49.065Z,8.77
2023-04-24T04:03:15.671Z,7.85
2023-04-24T04:05:42.811Z,8.60
2023-04-24T04:08:09.395Z,8.48
2023-04-24T04:13:14.710Z,8.65
2023-04-24T04:15:41.100Z,8.25
2023-04-24T04:18:08.198Z,9.05
2023-04-24T04:20:34.789Z,9.20
2023-04-24T04:23:01.137Z,8.02
2023-04-24T04:25:27.639Z,8.27
2023-04-24T04:27:54.443Z,7.75
2023-04-24T04:30:21.124Z,8.50
2023-04-24T04:32:47.539Z,8.60
2023-04-24T04:35:14.179Z,8.63
2023-04-24T04:37:40.888Z,7.95
2023-04-24T04:40:07.858Z,8.23
2023-04-24T04:42:34.364Z,7.97
2023-04-24T04:45:01.080Z,7.93
2023-04-24T04:47:27.789Z,7.43
2023-04-24T04:49:54.435Z,7.78
2023-04-24T04:52:21.005Z,8.27
2023-04-24T04:54:47.482Z,8.18
2023-04-24T04:57:14.230Z,9.45
2023-04-24T04:59:41.169Z,8.57
2023-04-24T05:02:08.313Z,8.07
2023-04-24T05:04:35.678Z,7.78
2023-04-24T05:07:02.254Z,8.68
2023-04-24T05:09:29.002Z,8.50
2023-04-24T05:11:55.322Z,8.85
2023-04-24T05:14:21.866Z,8.00
2023-04-24T05:16:48.719Z,8.32
2023-04-24T05:19:15.286Z,7.75
2023-04-24T05:21:42.196Z,7.00
2023-04-24T05:24:08.887Z,7.50
2023-04-24T05:26:35.411Z,8.00
2023-04-24T05:29:01.750Z,7.93
2023-04-24T05:31:28.736Z,7.38
2023-04-24T05:33:55.339Z,8.07
2023-04-24T05:36:21.836Z,7.93
2023-04-24T05:38:48.579Z,7.97
2023-04-24T05:41:14.872Z,7.97
2023-04-24T05:43:41.650Z,7.82
2023-04-24T05:46:08.190Z,8.07
2023-04-24T05:48:34.713Z,7.47
2023-04-24T05:51:01.329Z,8.05
2023-04-24T05:53:27.802Z,8.95
2023-04-24T05:55:54.138Z,10.50
2023-04-24T05:58:20.465Z,7.60
2023-04-24T06:00:46.978Z,8.20
2023-04-24T06:03:13.814Z,7.15
2023-04-24T06:05:40.437Z,8.25
2023-04-24T06:08:06.776Z,8.45
2023-04-24T06:10:33.268Z,6.97
2023-04-24T06:12:59.702Z,7.88
2023-04-24T06:15:26.392Z,7.70
2023-04-24T06:17:53.129Z,9.50
2023-04-24T06:20:19.555Z,7.95
2023-04-24T06:22:46.001Z,7.65
2023-04-24T06:25:12.317Z,7.25
2023-04-24T06:27:38.821Z,7.30
2023-04-24T06:30:05.186Z,7.28
2023-04-24T06:32:31.546Z,7.63
2023-04-24T06:34:59.092Z,7.65
2023-04-24T06:37:26.035Z,8.95
2023-04-24T06:39:52.842Z,10.35
2023-04-24T06:42:19.647Z,7.13
2023-04-24T06:44:46.216Z,7.05
2023-04-24T06:47:12.583Z,7.32
2023-04-24T06:49:39.214Z,7.03
2023-04-24T06:52:05.971Z,10.00
2023-04-24T06:54:32.680Z,6.70
2023-04-24T06:56:59.050Z,7.63
2023-04-24T06:59:25.786Z,7.93
2023-04-24T07:01:54.728Z,8.98
2023-04-24T07:04:22.751Z,6.93
2023-04-24T07:06:49.374Z,7.18
2023-04-24T07:09:16.325Z,6.22
2023-04-24T07:11:42.665Z,6.22
2023-04-24T07:14:09.513Z,6.50
2023-04-24T07:16:35.933Z,6.88
2023-04-24T07:19:02.741Z,6.88
2023-04-24T07:21:29.424Z,7.35
2023-04-24T07:23:55.934Z,6.15
2023-04-24T07:26:22.403Z,6.80
2023-04-24T07:28:49.260Z,8.10
2023-04-24T07:31:15.955Z,7.20
2023-04-24T07:33:42.587Z,6.00
2023-04-24T07:36:09.080Z,6.43
2023-04-24T07:38:35.624Z,6.45
2023-04-24T07:41:02.144Z,8.48
2023-04-24T07:43:28.452Z,5.65
2023-04-24T07:45:55.228Z,7.88
2023-04-24T07:48:21.852Z,6.75
2023-04-24T07:50:48.810Z,6.28
2023-04-24T07:53:15.152Z,5.97
2023-04-24T07:55:41.924Z,6.05
2023-04-24T07:58:08.528Z,7.25
2023-04-24T08:00:34.921Z,5.90
2023-04-24T08:03:01.763Z,5.85
2023-04-24T08:05:28.550Z,5.40
2023-04-24T08:07:55.316Z,6.38
2023-04-24T08:10:21.941Z,6.13
2023-04-24T08:12:48.758Z,6.22
2023-04-24T08:15:15.348Z,6.25
2023-04-24T08:17:42.108Z,6.40
2023-04-24T08:20:08.507Z,6.15
2023-04-24T08:22:34.933Z,6.00
2023-04-24T08:25:01.760Z,5.70
2023-04-24T08:27:28.250Z,5.32
2023-04-24T08:29:54.712Z,7.15
2023-04-24T08:32:21.549Z,5.38
2023-04-24T08:34:49.538Z,5.50
2023-04-24T08:37:16.535Z,5.88
2023-04-24T08:39:43.334Z,5.85
2023-04-24T08:42:09.977Z,6.05
2023-04-24T08:44:36.628Z,6.18
2023-04-24T08:47:03.269Z,5.78
2023-04-24T08:49:30.160Z,5.68
2023-04-24T08:51:56.730Z,5.57
2023-04-24T08:54:23.355Z,7.47
2023-04-24T08:56:49.855Z,5.88
2023-04-24T08:59:16.261Z,5.53
2023-04-24T09:01:42.629Z,6.00
2023-04-24T09:04:09.177Z,5.35
2023-04-24T09:06:35.796Z,5.28
2023-04-24T09:09:02.131Z,5.70
2023-04-24T09:11:28.936Z,4.82
2023-04-24T09:13:55.490Z,8.10
2023-04-24T09:16:21.944Z,5.93
2023-04-24T09:18:48.372Z,5.43
2023-04-24T09:21:15.279Z,5.40
2023-04-24T09:23:41.730Z,5.78
2023-04-24T09:26:08.190Z,5.22
2023-04-24T09:28:34.705Z,5.63
2023-04-24T09:31:01.578Z,5.03
2023-04-24T09:33:28.376Z,5.57
2023-04-24T09:35:54.701Z,4.57
2023-04-24T09:38:21.420Z,5.07
2023-04-24T09:40:48.196Z,4.53
2023-04-24T09:43:14.497Z,5.07
2023-04-24T09:45:41.041Z,6.43
2023-04-24T09:48:07.746Z,5.97
2023-04-24T09:50:34.113Z,4.80
2023-04-24T09:53:00.508Z,5.07
2023-04-24T09:55:27.204Z,4.45
2023-04-24T09:57:54.685Z,4.95
2023-04-24T10:00:21.025Z,4.68
2023-04-24T10:02:47.950Z,5.25
2023-04-24T10:05:14.435Z,4.95
2023-04-24T10:07:41.148Z,4.50
2023-04-24T10:10:07.828Z,4.65
2023-04-24T10:12:34.167Z,4.93
2023-04-24T10:15:00.703Z,5.68
2023-04-24T10:17:27.520Z,5.50
2023-04-24T10:19:54.349Z,4.38
2023-04-24T10:22:20.884Z,6.53
2023-04-24T10:24:47.322Z,4.68
2023-04-24T10:27:13.746Z,4.72
2023-04-24T10:29:40.113Z,4.50
2023-04-24T10:32:06.999Z,6.40
2023-04-24T10:34:33.457Z,4.13
2023-04-24T10:37:00.033Z,4.22
2023-04-24T10:39:27.889Z,4.80
2023-04-24T10:41:55.147Z,4.82
2023-04-24T10:44:21.953Z,4.93
2023-04-24T10:46:48.874Z,4.50
2023-04-24T10:49:15.253Z,4.00
2023-04-24T10:51:41.560Z,4.30
2023-04-24T10:54:08.245Z,4.80
2023-04-24T10:56:34.522Z,4.50
2023-04-24T10:59:01.373Z,5.10
2023-04-24T11:01:28.325Z,4.25
2023-04-24T11:03:54.884Z,4.05
2023-04-24T11:06:21.673Z,4.68
2023-04-24T11:08:48.337Z,4.18
2023-04-24T11:11:14.852Z,4.18
2023-04-24T11:13:41.434Z,3.83
2023-04-24T11:16:07.773Z,5.18
2023-04-24T11:18:34.538Z,4.43
2023-04-24T11:21:01.188Z,3.70
2023-04-24T11:23:28.176Z,4.38
2023-04-24T11:25:54.945Z,4.20
2023-04-24T11:28:21.743Z,4.15
2023-04-24T11:30:48.187Z,4.65
2023-04-24T11:33:14.759Z,3.97
2023-04-24T11:35:41.418Z,4.53
2023-04-24T11:38:23.428Z,4.30
2023-04-24T11:40:50.312Z,3.90
2023-04-24T11:43:17.377Z,3.53
2023-04-24T11:45:43.857Z,4.13
2023-04-24T11:48:10.560Z,4.03
2023-04-24T11:50:37.171Z,4.15
2023-04-24T11:53:04.515Z,4.53
2023-04-24T11:55:30.960Z,3.72
2023-04-24T11:57:57.590Z,5.22
2023-04-24T12:00:24.141Z,3.88
2023-04-24T12:02:50.924Z,4.18
2023-04-24T12:05:18.036Z,4.95
2023-04-24T12:07:44.752Z,3.80
2023-04-24T12:10:11.688Z,3.65
2023-04-24T12:12:38.065Z,3.70
2023-04-24T12:15:04.915Z,4.32
2023-04-24T12:17:31.413Z,3.83
2023-04-24T12:19:57.776Z,10.80
2023-04-24T12:22:24.289Z,5.15
2023-04-24T12:24:50.636Z,6.18
2023-04-24T12:27:17.283Z,3.90
2023-04-24T12:29:43.613Z,4.65
2023-04-24T12:32:10.580Z,4.75
2023-04-24T12:34:36.959Z,4.45
2023-04-24T12:37:04.249Z,3.78
2023-04-24T12:39:30.901Z,3.55
2023-04-24T12:41:57.692Z,4.35
2023-04-24T12:44:24.283Z,3.33
2023-04-24T12:46:51.088Z,6.35
2023-04-24T12:49:17.907Z,3.50
2023-04-24T12:51:44.832Z,3.45
2023-04-24T12:54:11.331Z,3.72
2023-04-24T12:56:37.856Z,3.85
2023-04-24T12:59:04.621Z,142.05
2023-04-24T13:01:33.103Z,284.20
2023-04-24T13:04:00.066Z,325.48
2023-04-24T13:06:26.610Z,232.93
2023-04-24T13:08:53.700Z,215.98
2023-04-24T13:11:20.559Z,181.30
2023-04-24T13:13:47.357Z,157.57
2023-04-24T13:16:13.779Z,129.07
2023-04-24T13:18:40.666Z,111.88
2023-04-24T13:21:07.135Z,128.45
2023-04-24T13:23:33.481Z,249.40
2023-04-24T13:26:00.157Z,207.52
2023-04-24T13:28:26.804Z,185.25
2023-04-24T13:30:53.500Z,166.52
2023-04-24T13:33:20.228Z,133.45
2023-04-24T13:35:47.175Z,103.38
2023-04-24T13:38:13.574Z,102.45
2023-04-24T13:40:40.499Z,181.15
2023-04-24T13:43:06.891Z,402.45
2023-04-24T13:45:33.517Z,372.33
2023-04-24T13:48:00.538Z,343.35
2023-04-24T13:50:27.117Z,298.95
2023-04-24T13:52:53.469Z,251.93
2023-04-24T13:55:20.186Z,228.13
2023-04-24T13:57:46.720Z,192.52
2023-04-24T14:00:13.479Z,157.50
2023-04-24T14:02:40.004Z,271.60
2023-04-24T14:05:06.713Z,418.23
2023-04-24T14:07:33.374Z,461.40
2023-04-24T14:10:00.077Z,376.30
2023-04-24T14:12:26.669Z,324.20
2023-04-24T14:14:53.592Z,302.70
2023-04-24T14:17:20.244Z,285.27
2023-04-24T14:19:47.043Z,268.65
2023-04-24T14:22:14.006Z,260.48
2023-04-24T14:24:40.604Z,250.07
2023-04-24T14:27:07.475Z,246.50
2023-04-24T14:29:35.272Z,235.75
2023-04-24T14:32:01.894Z,230.68
2023-04-24T14:34:28.863Z,220.57
2023-04-24T14:36:55.377Z,221.52
2023-04-24T14:39:22.447Z,222.00
2023-04-24T14:41:49.143Z,215.70
2023-04-24T14:44:16.227Z,210.35
2023-04-24T14:46:42.671Z,211.75
2023-04-24T14:49:09.134Z,205.95
2023-04-24T14:51:36.021Z,198.90
2023-04-24T14:54:02.786Z,196.63
2023-04-24T14:56:29.278Z,194.23
2023-04-24T14:58:56.085Z,190.48
2023-04-24T15:01:23.163Z,190.73
2023-04-24T15:03:50.454Z,189.40
2023-04-24T15:06:17.319Z,259.80
2023-04-24T15:08:43.637Z,479.90
2023-04-24T15:11:10.186Z,480.02
2023-04-24T15:13:36.976Z,499.67
2023-04-24T15:16:03.354Z,457.65
2023-04-24T15:18:29.745Z,415.35
2023-04-24T15:20:56.570Z,379.75
2023-04-24T15:23:23.624Z,368.08
2023-04-24T15:25:50.423Z,355.85
2023-04-24T15:28:17.406Z,562.85
2023-04-24T15:30:43.890Z,637.17
2023-04-24T15:33:10.397Z,594.38
2023-04-24T15:35:37.335Z,558.13
2023-04-24T15:38:03.691Z,502.55
2023-04-24T15:40:30.884Z,484.50
2023-04-24T15:42:57.686Z,472.17
2023-04-24T15:45:24.558Z,454.20
2023-04-24T15:47:51.429Z,438.02
2023-04-24T15:50:17.809Z,431.42
2023-04-24T15:52:44.457Z,429.17
2023-04-24T15:55:11.244Z,414.83
2023-04-24T15:57:37.845Z,403.23
2023-04-24T16:00:04.191Z,482.30
2023-04-24T16:02:30.628Z,699.42
2023-04-24T16:04:57.319Z,669.67
2023-04-24T16:07:23.940Z,582.63
2023-04-24T16:09:50.824Z,557.20
2023-04-24T16:12:17.650Z,532.85
2023-04-24T16:14:44.232Z,518.55
2023-04-24T16:17:10.774Z,510.25
2023-04-24T16:19:37.666Z,485.58
2023-04-24T16:22:04.038Z,479.52
2023-04-24T16:24:30.405Z,584.10
2023-04-24T16:26:56.706Z,671.25
2023-04-24T16:29:23.091Z,527.63
2023-04-24T16:31:49.783Z,506.75
2023-04-24T16:34:16.876Z,485.05
2023-04-24T16:36:43.285Z,453.80
2023-04-24T16:39:10.082Z,441.00
2023-04-24T16:41:36.507Z,425.92
2023-04-24T16:44:03.167Z,400.38
2023-04-24T16:46:29.706Z,386.73
2023-04-24T16:48:56.186Z,369.48
2023-04-24T16:51:23.174Z,351.52
2023-04-24T16:53:49.897Z,333.17
2023-04-24T16:56:16.245Z,321.05
2023-04-24T16:58:43.009Z,295.60
2023-04-24T17:01:09.926Z,292.63
2023-04-24T17:03:36.885Z,465.95
2023-04-24T17:06:03.699Z,427.00
2023-04-24T17:08:30.497Z,393.58
2023-04-24T17:10:57.421Z,381.30
2023-04-24T17:13:23.872Z,366.25
2023-04-24T17:15:50.566Z,342.95
2023-04-24T17:18:17.577Z,327.40
2023-04-24T17:20:44.223Z,317.33
2023-04-24T17:23:10.716Z,298.05
2023-04-24T17:25:37.529Z,296.27
2023-04-24T17:28:03.871Z,269.77
2023-04-24T17:30:30.749Z,257.40
2023-04-24T17:32:57.562Z,243.07
2023-04-24T17:35:24.541Z,231.30
2023-04-24T17:37:50.856Z,222.48
2023-04-24T17:40:17.973Z,209.32
2023-04-24T17:42:44.451Z,233.52
2023-04-24T17:45:11.004Z,335.75
2023-04-24T17:47:37.454Z,308.35
2023-04-24T17:50:03.970Z,288.27
2023-04-24T17:52:30.409Z,268.52
2023-04-24T17:54:57.043Z,253.65
2023-04-24T17:57:23.707Z,254.57
2023-04-24T17:59:50.101Z,236.85
2023-04-24T18:02:16.791Z,181.40
2023-04-24T18:04:43.780Z,169.35
2023-04-24T18:07:12.097Z,152.73
2023-04-24T18:09:38.578Z,172.85
2023-04-24T18:12:05.122Z,206.20
2023-04-24T18:14:31.416Z,212.70
2023-04-24T18:16:58.198Z,201.60
2023-04-24T18:19:24.635Z,189.07
2023-04-24T18:21:51.312Z,176.88
2023-04-24T18:24:17.676Z,175.40
2023-04-24T18:26:44.457Z,166.80
2023-04-24T18:29:10.987Z,155.38
2023-04-24T18:31:37.718Z,145.32
2023-04-24T18:34:04.332Z,143.98
2023-04-24T18:36:30.769Z,138.45
2023-04-24T18:38:57.273Z,125.60
2023-04-24T18:41:23.596Z,118.40
2023-04-24T18:43:50.544Z,114.30
2023-04-24T18:46:17.619Z,111.35
2023-04-24T18:48:44.251Z,108.53
2023-04-24T18:51:10.685Z,122.03
2023-04-24T18:53:37.110Z,328.42
2023-04-24T18:56:03.541Z,370.10
2023-04-24T18:58:29.897Z,344.02
2023-04-24T19:00:56.907Z,319.48
2023-04-24T19:03:23.562Z,297.75
2023-04-24T19:05:50.293Z,278.80
2023-04-24T19:08:16.782Z,266.48
2023-04-24T19:10:43.360Z,248.88
2023-04-24T19:13:09.687Z,246.48
2023-04-24T19:15:36.095Z,228.55
2023-04-24T19:18:02.692Z,294.17
2023-04-24T19:20:29.170Z,437.48
2023-04-24T19:22:55.623Z,397.55
2023-04-24T19:25:22.112Z,383.80
2023-04-24T19:27:48.728Z,364.42
2023-04-24T19:30:15.083Z,353.65
2023-04-24T19:32:41.499Z,329.88
2023-04-24T19:35:08.247Z,307.85
2023-04-24T19:37:34.561Z,309.88
2023-04-24T19:40:00.991Z,310.58
2023-04-24T19:42:36.355Z,299.80
2023-04-24T19:45:09.648Z,290.63
2023-04-24T19:47:36.029Z,288.95
2023-04-24T19:50:02.481Z,286.23
2023-04-24T19:52:29.051Z,476.83
2023-04-24T19:54:55.950Z,667.97
2023-04-24T19:57:22.832Z,518.88
2023-04-24T19:59:49.552Z,468.60
2023-04-24T20:02:17.681Z,448.10
2023-04-24T20:04:44.475Z,422.80
2023-04-24T20:07:11.064Z,401.30
2023-04-24T20:09:37.743Z,399.75
2023-04-24T20:12:04.265Z,852.25
2023-04-24T20:14:30.890Z,718.72
2023-04-24T20:16:57.412Z,625.58
2023-04-24T20:19:24.289Z,573.95
2023-04-24T20:21:50.660Z,564.05
2023-04-24T20:24:17.005Z,552.28
2023-04-24T20:26:43.744Z,514.45
2023-04-24T20:29:10.092Z,518.30
2023-04-24T20:31:36.853Z,496.45
2023-04-24T20:34:03.277Z,491.55
2023-04-24T20:36:29.709Z,483.90
2023-04-24T20:38:56.202Z,486.35
2023-04-24T20:41:23.070Z,474.35
2023-04-24T20:43:49.440Z,467.73
2023-04-24T20:46:16.120Z,459.50
2023-04-24T20:48:42.444Z,443.92
2023-04-24T20:51:08.810Z,444.23
2023-04-24T20:53:35.127Z,430.27
2023-04-24T20:56:01.555Z,432.35
2023-04-24T20:58:28.036Z,416.88
2023-04-24T21:00:54.599Z,409.13
2023-04-24T21:03:21.905Z,401.77
2023-04-24T21:05:49.275Z,391.23
2023-04-24T21:08:15.689Z,391.85
2023-04-24T21:10:42.584Z,390.67
2023-04-24T21:13:09.212Z,381.80
2023-04-24T21:15:35.789Z,384.65
2023-04-24T21:18:02.294Z,363.42
2023-04-24T21:20:28.840Z,360.55
2023-04-24T21:22:55.619Z,356.52
2023-04-24T21:25:22.045Z,354.70
2023-04-24T21:27:48.832Z,345.55
2023-04-24T21:30:15.424Z,339.58
2023-04-24T21:32:41.877Z,336.73
2023-04-24T21:35:08.457Z,331.02
2023-04-24T21:37:34.832Z,324.30
2023-04-24T21:40:01.438Z,322.63
2023-04-24T21:42:27.890Z,313.75
2023-04-24T21:44:54.524Z,303.30
2023-04-24T21:47:21.000Z,315.75
2023-04-24T21:49:47.412Z,299.05
2023-04-24T21:52:13.865Z,298.33
2023-04-24T21:54:40.623Z,290.73
2023-04-24T21:57:07.504Z,287.13
2023-04-24T21:59:33.907Z,273.08
2023-04-24T22:02:00.287Z,276.00
2023-04-24T22:04:27.557Z,273.40
2023-04-24T22:06:55.266Z,266.40
2023-04-24T22:09:21.811Z,264.27
2023-04-24T22:11:48.329Z,258.88
2023-04-24T22:14:14.856Z,258.55
2023-04-24T22:16:41.532Z,256.75
2023-04-24T22:19:07.934Z,254.07
2023-04-24T22:21:35.369Z,244.00
2023-04-24T22:24:02.815Z,246.70
2023-04-24T22:26:29.397Z,241.75
2023-04-24T22:28:55.809Z,232.48
2023-04-24T22:31:22.661Z,228.70
2023-04-24T22:33:49.409Z,227.45
2023-04-24T22:36:16.539Z,217.93
2023-04-24T22:38:43.012Z,218.55
2023-04-24T22:41:09.917Z,218.15
2023-04-24T22:43:36.794Z,213.00
2023-04-24T22:46:04.951Z,209.45
2023-04-24T22:48:31.438Z,205.30
2023-04-24T22:50:58.335Z,199.88
2023-04-24T22:53:24.896Z,193.63
2023-04-24T22:55:51.513Z,194.98
2023-04-24T22:58:17.964Z,186.65
2023-04-24T23:00:44.557Z,186.38
2023-04-24T23:03:11.158Z,184.45
2023-04-24T23:05:37.661Z,180.82
2023-04-24T23:08:04.076Z,173.30
2023-04-24T23:10:30.735Z,170.23
2023-04-24T23:12:57.502Z,170.68
2023-04-24T23:15:24.148Z,168.55
2023-04-24T23:17:50.949Z,168.20
2023-04-24T23:20:17.423Z,166.32
2023-04-24T23:22:44.253Z,163.18
2023-04-24T23:25:10.607Z,164.63
2023-04-24T23:27:37.722Z,155.05
2023-04-24T23:30:04.283Z,148.93
2023-04-24T23:32:30.744Z,148.35
2023-04-24T23:34:57.465Z,145.60
2023-04-24T23:37:24.209Z,145.27
2023-04-24T23:39:51.021Z,144.13
2023-04-24T23:42:17.520Z,140.55
2023-04-24T23:44:43.931Z,135.65
2023-04-24T23:47:10.791Z,134.00
2023-04-24T23:49:37.497Z,136.48
2023-04-24T23:52:04.124Z,129.80
2023-04-24T23:54:31.031Z,131.70
2023-04-24T23:56:57.539Z,126.32
2023-04-24T23:59:24.139Z,128.20
